Time;durP1;ratioP1;P1;durP2;ratioP2;P2;SDS_P1;SDS_P2;PMS_P1;PMS_P2;Temp;Humidity;BMP_temperature;BMP_pressure;BME280_temperature;BME280_humidity;BME280_pressure;Samples;Min_cycle;Max_cycle;Signal;HPM_P1;HPM_P2
2021/12/26 00:01:53;;;;;;;14.98;10.25;;;;;;;2.75;96.03;99770.03;8311244;28;20034;-67
2021/12/26 00:05:55;;;;;;;13.27;9.30;;;;;;;2.74;96.05;99762.97;8274237;28;20037;-68
2021/12/26 00:09:56;;;;;;;14.10;7.53;;;;;;;2.79;95.61;99766.16;8306900;28;20455;-67
2021/12/26 00:13:56;;;;;;;16.83;9.20;;;;;;;2.75;95.71;99764.69;8322118;28;20065;-67
2021/12/26 00:17:57;;;;;;;13.75;8.82;;;;;;;2.73;95.63;99761.25;8321125;28;20041;-67
2021/12/26 00:21:58;;;;;;;12.75;8.38;;;;;;;2.73;96.20;99766.59;8321455;28;20172;-68
2021/12/26 00:25:58;;;;;;;14.07;9.27;;;;;;;2.68;95.94;99758.06;8323160;28;20517;-67
2021/12/26 00:29:59;;;;;;;12.98;8.82;;;;;;;2.68;96.44;99763.41;8321552;28;20116;-67
2021/12/26 00:33:59;;;;;;;12.32;8.77;;;;;;;2.67;97.00;99753.69;8321769;28;20038;-68
2021/12/26 00:38:00;;;;;;;13.70;9.52;;;;;;;2.64;96.99;99745.91;8321379;28;20037;-67
2021/12/26 00:42:01;;;;;;;11.73;8.65;;;;;;;2.70;97.10;99750.81;8321600;28;20037;-68
2021/12/26 00:46:02;;;;;;;14.40;9.57;;;;;;;2.72;96.96;99748.91;8322474;28;20041;-68
2021/12/26 00:50:07;;;;;;;15.60;9.50;;;;;;;2.71;97.10;99751.66;8322535;28;20034;-68
2021/12/26 00:54:07;;;;;;;16.25;10.90;;;;;;;2.72;96.75;99748.91;8322608;28;20034;-68
2021/12/26 00:58:08;;;;;;;17.33;10.32;;;;;;;2.69;97.31;99738.44;8322119;28;20180;-67
2021/12/26 01:02:09;;;;;;;16.55;9.52;;;;;;;2.74;97.20;99746.94;8321020;28;20025;-67
2021/12/26 01:06:10;;;;;;;15.10;10.82;;;;;;;2.77;97.32;99752.06;8321065;28;20575;-68
2021/12/26 01:10:11;;;;;;;16.35;9.90;;;;;;;2.80;97.20;99743.84;8320702;28;20064;-68
2021/12/26 01:14:13;;;;;;;16.67;10.20;;;;;;;2.84;97.03;99739.97;8322375;28;20038;-68
2021/12/26 01:18:14;;;;;;;17.75;11.40;;;;;;;2.83;97.43;99734.75;8320711;28;20469;-68
2021/12/26 01:22:16;;;;;;;23.10;12.23;;;;;;;2.85;97.17;99746.16;8322228;28;20052;-68
2021/12/26 01:26:17;;;;;;;18.80;10.57;;;;;;;2.88;96.63;99741.47;8321211;28;20091;-68
2021/12/26 01:30:18;;;;;;;15.95;11.00;;;;;;;2.79;97.03;99735.94;8301210;28;20088;-68
2021/12/26 01:34:18;;;;;;;17.25;10.68;;;;;;;2.82;97.54;99739.25;8325493;28;20068;-68
2021/12/26 01:38:19;;;;;;;18.25;10.85;;;;;;;2.82;97.02;99739.25;8326808;28;20621;-68
2021/12/26 01:42:20;;;;;;;18.98;11.05;;;;;;;2.83;97.28;99740.94;8328043;28;20037;-68
2021/12/26 01:46:20;;;;;;;16.08;10.52;;;;;;;2.79;97.09;99739.47;8327778;28;20055;-68
2021/12/26 01:50:21;;;;;;;16.60;10.63;;;;;;;2.78;96.73;99732.44;8327508;28;20060;-68
2021/12/26 01:54:45;;;;;;;17.75;11.80;;;;;;;2.78;97.09;99759.13;8343117;28;20106;-68
2021/12/26 01:58:44;;;;;;;19.20;11.27;;;;;;;2.81;97.15;99750.03;8326159;28;20521;-68
2021/12/26 02:02:45;;;;;;;18.20;11.48;;;;;;;2.75;97.91;99738.00;8326197;28;20440;-68
2021/12/26 02:06:45;;;;;;;19.52;10.90;;;;;;;2.72;98.01;99729.34;8325656;28;20481;-68
2021/12/26 02:10:46;;;;;;;18.60;11.50;;;;;;;2.71;98.45;99731.16;8327468;28;20105;-68
2021/12/26 02:14:46;;;;;;;18.88;11.10;;;;;;;2.70;97.77;99728.59;8327200;28;20167;-68
2021/12/26 02:18:47;;;;;;;18.95;11.55;;;;;;;2.67;98.26;99724.34;8325047;28;20481;-68
2021/12/26 02:22:54;;;;;;;19.63;11.55;;;;;;;2.63;98.13;99716.69;8325904;28;20042;-68
2021/12/26 02:27:57;;;;;;;21.17;12.25;;;;;;;2.65;98.66;99725.44;8325085;28;20085;-68
2021/12/26 02:31:18;;;;;;;19.07;12.07;;;;;;;2.62;98.64;99726.47;8325620;28;20064;-68
2021/12/26 02:35:21;;;;;;;22.35;13.30;;;;;;;2.62;98.91;99725.66;8325337;28;20038;-68
2021/12/26 02:39:22;;;;;;;20.40;12.85;;;;;;;2.63;99.07;99722.88;8326037;28;20033;-68
2021/12/26 02:43:26;;;;;;;21.63;12.70;;;;;;;2.65;99.11;99720.94;8308638;28;20034;-68
2021/12/26 02:47:38;;;;;;;22.65;14.25;;;;;;;2.64;99.41;99723.72;8323870;28;20580;-68
2021/12/26 02:51:38;;;;;;;21.73;12.05;;;;;;;2.67;99.84;99718.16;8324688;28;20409;-68
2021/12/26 02:55:39;;;;;;;21.17;12.60;;;;;;;2.67;99.49;99719.00;8326169;28;20442;-65
2021/12/26 02:59:39;;;;;;;21.85;13.25;;;;;;;2.67;99.73;99724.34;8331649;28;20029;-65
2021/12/26 03:03:40;;;;;;;23.58;12.60;;;;;;;2.68;99.69;99720.72;8325350;28;20041;-65
2021/12/26 03:07:41;;;;;;;20.23;12.70;;;;;;;2.69;99.30;99710.91;8323949;28;20034;-65
2021/12/26 03:11:44;;;;;;;22.80;12.52;;;;;;;2.66;99.78;99706.66;8325277;28;20052;-65
2021/12/26 03:15:45;;;;;;;23.63;11.95;;;;;;;2.71;99.24;99715.16;8323909;28;20055;-65
2021/12/26 03:19:46;;;;;;;21.23;11.55;;;;;;;2.69;99.35;99713.56;8312680;28;20042;-65
2021/12/26 03:23:46;;;;;;;20.30;12.73;;;;;;;2.69;99.62;99717.09;8340324;28;20041;-65
2021/12/26 03:27:49;;;;;;;21.13;12.32;;;;;;;2.68;99.17;99714.53;8324838;28;20037;-65
2021/12/26 03:31:49;;;;;;;23.30;12.40;;;;;;;2.69;99.27;99719.75;8324781;28;20034;-65
2021/12/26 03:35:51;;;;;;;21.05;13.43;;;;;;;2.66;98.97;99701.31;8319891;28;20074;-65
2021/12/26 03:39:51;;;;;;;23.17;13.23;;;;;;;2.68;99.20;99707.38;8291855;28;20092;-65
2021/12/26 03:43:52;;;;;;;20.23;12.07;;;;;;;2.69;98.95;99706.41;8291890;28;20036;-65
2021/12/26 03:47:52;;;;;;;20.55;13.13;;;;;;;2.72;98.45;99710.69;8310065;28;20517;-65
2021/12/26 03:51:52;;;;;;;20.23;12.55;;;;;;;2.73;99.33;99702.56;8322877;28;20038;-65
2021/12/26 03:55:53;;;;;;;19.15;11.80;;;;;;;2.71;99.16;99696.47;8323621;28;20474;-65
2021/12/26 03:59:54;;;;;;;21.85;12.98;;;;;;;2.71;99.43;99691.13;8323139;28;20034;-65
2021/12/26 04:03:54;;;;;;;23.60;14.02;;;;;;;2.73;99.21;99689.22;8322609;28;20033;-65
2021/12/26 04:07:55;;;;;;;23.60;13.15;;;;;;;2.73;99.26;99683.00;8305493;28;20104;-65
2021/12/26 04:11:55;;;;;;;24.90;13.57;;;;;;;2.68;99.43;99678.00;8323630;28;20037;-65
2021/12/26 04:15:56;;;;;;;24.73;13.15;;;;;;;2.72;99.92;99667.97;8323576;28;20115;-65
2021/12/26 04:19:56;;;;;;;25.27;13.57;;;;;;;2.68;99.70;99656.66;8323041;28;20038;-65
2021/12/26 04:23:57;;;;;;;22.38;13.02;;;;;;;2.70;99.75;99676.09;8338869;28;20472;-65
2021/12/26 04:27:58;;;;;;;26.20;13.43;;;;;;;2.74;99.17;99679.41;8323042;28;20489;-65
2021/12/26 04:31:58;;;;;;;26.13;14.55;;;;;;;2.68;99.49;99656.66;8322992;28;20604;-65
2021/12/26 04:35:58;;;;;;;26.60;14.00;;;;;;;2.70;99.92;99668.09;8289248;28;20033;-65
2021/12/26 04:39:59;;;;;;;26.52;14.05;;;;;;;2.70;99.50;99662.75;8323080;28;20389;-65
2021/12/26 04:43:59;;;;;;;25.05;13.07;;;;;;;2.70;99.71;99654.75;8323089;28;20060;-65
2021/12/26 04:48:02;;;;;;;23.77;12.68;;;;;;;2.68;99.54;99662.00;8328081;28;20124;-65
2021/12/26 04:52:03;;;;;;;23.42;13.25;;;;;;;2.69;99.75;99679.75;8321509;28;20397;-65
2021/12/26 04:56:05;;;;;;;25.08;14.25;;;;;;;2.66;99.31;99674.63;8322641;28;20064;-65
2021/12/26 05:00:08;;;;;;;24.55;13.05;;;;;;;2.71;99.44;99683.13;8322548;28;20519;-65
2021/12/26 05:04:10;;;;;;;25.90;13.38;;;;;;;2.70;99.62;99681.44;8322747;28;20033;-65
2021/12/26 05:08:11;;;;;;;26.70;14.30;;;;;;;2.64;99.83;99689.88;8323295;28;20168;-65
2021/12/26 05:12:12;;;;;;;26.65;13.35;;;;;;;2.65;99.98;99678.25;8329511;28;20052;-65
2021/12/26 05:16:13;;;;;;;26.50;14.30;;;;;;;2.60;100.00;99679.53;8328994;28;20038;-65
2021/12/26 05:20:14;;;;;;;27.23;14.98;;;;;;;2.66;100.00;99673.78;8328769;28;20037;-65
2021/12/26 05:24:14;;;;;;;25.30;13.43;;;;;;;2.68;100.00;99688.69;8327110;28;20041;-65
2021/12/26 05:28:14;;;;;;;27.27;15.50;;;;;;;2.70;100.00;99665.44;8328184;28;20030;-65
2021/12/26 05:32:15;;;;;;;28.55;15.07;;;;;;;2.63;100.00;99682.00;8328431;28;20501;-65
2021/12/26 05:36:16;;;;;;;27.67;14.52;;;;;;;2.65;100.00;99670.25;8328547;28;20044;-65
2021/12/26 05:40:16;;;;;;;27.02;15.10;;;;;;;2.67;100.00;99671.00;8328130;28;20509;-65
2021/12/26 05:44:17;;;;;;;27.92;15.48;;;;;;;2.66;100.00;99668.44;8328268;28;20060;-65
2021/12/26 05:48:17;;;;;;;26.42;14.32;;;;;;;2.70;100.00;99657.44;8327594;28;20061;-65
2021/12/26 05:52:18;;;;;;;27.73;15.30;;;;;;;2.66;100.00;99657.75;8327865;28;20038;-65
2021/12/26 05:56:19;;;;;;;28.05;15.18;;;;;;;2.69;100.00;99653.06;8327907;28;20041;-65
2021/12/26 06:00:20;;;;;;;32.97;15.38;;;;;;;2.69;100.00;99650.41;8326477;28;20041;-65
2021/12/26 06:04:21;;;;;;;27.75;15.80;;;;;;;2.71;100.00;99643.09;8327790;28;20052;-65
2021/12/26 06:08:21;;;;;;;30.45;14.77;;;;;;;2.72;100.00;99642.16;8325377;28;20037;-65
2021/12/26 06:12:21;;;;;;;27.65;14.70;;;;;;;2.73;100.00;99649.19;8325665;28;20029;-65
2021/12/26 06:16:22;;;;;;;28.42;14.50;;;;;;;2.73;100.00;99648.31;8320879;28;20037;-65
2021/12/26 06:20:22;;;;;;;30.45;15.52;;;;;;;2.77;100.00;99650.66;8321956;28;20041;-65
2021/12/26 06:24:24;;;;;;;28.42;15.52;;;;;;;2.83;100.00;99655.53;8324073;28;20037;-65
2021/12/26 06:28:25;;;;;;;31.10;15.63;;;;;;;2.84;100.00;99651.91;8338240;28;20428;-65
2021/12/26 06:32:25;;;;;;;30.98;15.57;;;;;;;2.84;100.00;99646.56;8306637;28;20608;-65
2021/12/26 06:36:26;;;;;;;30.33;15.98;;;;;;;2.84;100.00;99641.22;8317862;28;20410;-65
2021/12/26 06:40:26;;;;;;;31.77;16.20;;;;;;;2.89;100.00;99641.75;8323566;28;20124;-65
2021/12/26 06:44:27;;;;;;;28.95;15.20;;;;;;;2.89;100.00;99644.41;8321618;28;20049;-65
2021/12/26 06:48:27;;;;;;;27.60;15.50;;;;;;;2.90;100.00;99640.78;8317937;28;20523;-65
2021/12/26 06:52:27;;;;;;;34.72;16.67;;;;;;;2.93;100.00;99645.06;8321751;28;20037;-65
2021/12/26 06:56:31;;;;;;;31.55;16.58;;;;;;;2.91;100.00;99636.31;8322555;28;20033;-65
2021/12/26 07:00:32;;;;;;;28.27;15.80;;;;;;;2.90;100.00;99642.63;8322571;28;20029;-65
2021/12/26 07:04:32;;;;;;;29.98;15.50;;;;;;;2.94;100.00;99647.59;8322791;28;20041;-65
2021/12/26 07:08:33;;;;;;;30.83;16.33;;;;;;;2.92;100.00;99652.19;8321673;28;20122;-65
2021/12/26 07:12:34;;;;;;;29.27;14.30;;;;;;;2.94;100.00;99644.06;8320803;28;20494;-65
2021/12/26 07:16:34;;;;;;;33.13;17.00;;;;;;;2.95;100.00;99654.63;8318991;28;20033;-65
2021/12/26 07:20:35;;;;;;;26.00;14.38;;;;;;;2.97;100.00;99652.72;8321355;28;20029;-65
2021/12/26 07:24:35;;;;;;;26.95;14.80;;;;;;;2.99;100.00;99656.09;8336905;28;20034;-65
2021/12/26 07:28:36;;;;;;;28.20;15.15;;;;;;;3.02;100.00;99663.88;8319839;28;20160;-65
2021/12/26 07:32:36;;;;;;;33.70;16.33;;;;;;;3.03;100.00;99662.09;8320885;28;20147;-65
2021/12/26 07:36:37;;;;;;;29.80;16.48;;;;;;;3.02;100.00;99661.22;8320876;28;20481;-65
2021/12/26 07:40:38;;;;;;;31.60;15.77;;;;;;;3.04;100.00;99659.28;8319889;28;20037;-65
2021/12/26 07:44:38;;;;;;;33.55;17.23;;;;;;;3.04;100.00;99659.28;8320749;28;20119;-65
2021/12/26 07:48:38;;;;;;;34.95;17.10;;;;;;;3.07;100.00;99655.53;8319342;28;20071;-65
2021/12/26 07:52:42;;;;;;;32.38;15.98;;;;;;;3.10;100.00;99664.19;8319343;28;20037;-65
2021/12/26 07:56:43;;;;;;;31.67;17.20;;;;;;;3.12;100.00;99654.25;8315541;28;20359;-65
2021/12/26 08:00:44;;;;;;;34.97;18.45;;;;;;;3.17;100.00;99653.91;8309783;28;20041;-65
2021/12/26 08:04:46;;;;;;;37.95;18.17;;;;;;;3.19;100.00;99658.16;8309253;28;20149;-65
2021/12/26 08:08:47;;;;;;;33.83;18.15;;;;;;;3.18;100.00;99656.47;8318877;28;20493;-65
2021/12/26 08:12:48;;;;;;;38.10;19.50;;;;;;;3.20;100.00;99651.84;8308775;28;20049;-65
2021/12/26 08:16:48;;;;;;;38.92;18.70;;;;;;;3.22;100.00;99657.06;8312639;28;20067;-65
2021/12/26 08:20:49;;;;;;;37.95;17.98;;;;;;;3.21;100.00;99672.25;8309906;28;20049;-65
2021/12/26 08:24:49;;;;;;;36.83;18.00;;;;;;;3.27;100.00;99666.41;8310951;28;20564;-65
2021/12/26 08:28:50;;;;;;;35.72;18.17;;;;;;;3.32;100.00;99674.06;8283213;28;20076;-65
2021/12/26 08:32:53;;;;;;;35.60;17.90;;;;;;;3.34;100.00;99670.34;8300098;28;20515;-65
2021/12/26 08:37:04;;;;;;;33.83;17.60;;;;;;;3.38;100.00;99676.28;8288778;28;20133;-65
2021/12/26 08:41:05;;;;;;;36.20;18.13;;;;;;;3.40;99.64;99667.22;8272942;28;20585;-65
2021/12/26 08:45:06;;;;;;;36.95;17.00;;;;;;;3.46;99.49;99669.41;8283266;28;20044;-65
2021/12/26 08:49:06;;;;;;;34.40;16.60;;;;;;;3.49;99.43;99669.19;8300330;28;20054;-65
2021/12/26 08:53:08;;;;;;;30.92;16.55;;;;;;;3.53;99.17;99670.66;8301256;28;20041;-65
2021/12/26 08:57:09;;;;;;;32.70;17.58;;;;;;;3.52;99.28;99666.28;8301964;28;20136;-65
2021/12/26 09:01:09;;;;;;;31.73;16.40;;;;;;;3.58;99.26;99660.47;8303193;28;20537;-65
2021/12/26 09:05:11;;;;;;;32.63;16.65;;;;;;;3.60;98.77;99658.50;8301161;28;20033;-65
2021/12/26 09:09:12;;;;;;;29.95;15.73;;;;;;;3.60;98.79;99663.84;8296520;28;20086;-65
2021/12/26 09:13:12;;;;;;;27.92;14.68;;;;;;;3.68;98.79;99666.78;8263668;28;20041;-65
2021/12/26 09:17:13;;;;;;;30.05;15.75;;;;;;;3.61;98.94;99670.91;8302595;28;20046;-65
2021/12/26 09:21:13;;;;;;;32.63;15.95;;;;;;;3.65;99.62;99680.41;8309855;28;20562;-65
2021/12/26 09:25:14;;;;;;;28.27;14.85;;;;;;;3.62;99.98;99677.09;8296450;28;20462;-65
2021/12/26 09:29:14;;;;;;;32.72;16.00;;;;;;;3.63;100.00;99674.31;8299693;28;20080;-65
2021/12/26 09:33:19;;;;;;;31.60;15.85;;;;;;;3.71;100.00;99677.25;8300766;28;20119;-65
2021/12/26 09:37:21;;;;;;;28.75;16.08;;;;;;;3.82;100.00;99685.28;8304680;28;20368;-65
2021/12/26 09:41:29;;;;;;;29.05;15.20;;;;;;;3.86;99.95;99681.41;8305938;28;20455;-65
2021/12/26 09:45:30;;;;;;;28.02;14.30;;;;;;;3.88;100.00;99674.09;8296444;28;20429;-65
2021/12/26 09:49:31;;;;;;;33.00;16.70;;;;;;;3.90;100.00;99672.19;8301949;28;20045;-65
2021/12/26 09:53:38;;;;;;;30.35;14.65;;;;;;;3.80;100.00;99676.53;8302993;28;20034;-65
2021/12/26 09:57:39;;;;;;;27.85;15.00;;;;;;;3.82;100.00;99669.25;8311047;28;20561;-65
2021/12/26 10:01:44;;;;;;;28.02;14.52;;;;;;;3.92;100.00;99667.56;8293933;28;20489;-65
2021/12/26 10:06:09;;;;;;;28.27;15.27;;;;;;;3.97;98.97;99676.06;8310471;28;20172;-65
2021/12/26 10:10:10;;;;;;;28.75;14.48;;;;;;;4.08;98.77;99665.38;8306482;28;20033;-65
2021/12/26 10:14:14;;;;;;;29.20;14.45;;;;;;;4.16;98.08;99655.91;8311583;28;20045;-65
2021/12/26 10:18:30;;;;;;;28.17;15.23;;;;;;;4.22;97.76;99650.06;8298566;28;20258;-65
2021/12/26 10:22:30;;;;;;;28.92;14.60;;;;;;;4.21;97.66;99653.72;8308188;28;20041;-65
2021/12/26 10:26:35;;;;;;;27.05;14.35;;;;;;;4.26;97.57;99635.47;8310103;28;20092;-65
2021/12/26 10:30:42;;;;;;;30.60;15.18;;;;;;;4.31;98.46;99633.28;8309449;28;20567;-65
2021/12/26 10:34:49;;;;;;;28.67;14.45;;;;;;;4.34;98.39;99630.38;8313440;28;20330;-65
2021/12/26 10:39:12;;;;;;;33.78;16.40;;;;;;;4.46;99.84;99630.25;8312104;28;20042;-65
2021/12/26 10:43:13;;;;;;;28.03;14.57;;;;;;;4.38;99.68;99618.44;8304913;28;20341;-65
2021/12/26 10:47:16;;;;;;;31.17;15.95;;;;;;;4.39;100.00;99620.16;8271015;28;20483;-65
2021/12/26 10:51:37;;;;;;;32.50;16.53;;;;;;;4.36;100.00;99615.88;8271987;28;20413;-65
2021/12/26 10:55:41;;;;;;;33.30;16.77;;;;;;;4.38;100.00;99626.47;8310917;28;20399;-65
2021/12/26 10:59:44;;;;;;;32.65;15.88;;;;;;;4.41;100.00;99610.16;8276731;28;20045;-65
2021/12/26 11:03:45;;;;;;;25.55;14.40;;;;;;;4.45;100.00;99611.63;8296205;28;20123;-65
2021/12/26 11:08:04;;;;;;;26.20;15.20;;;;;;;4.53;99.40;99606.50;8300199;28;20042;-65
2021/12/26 11:12:09;;;;;;;26.25;14.20;;;;;;;4.72;97.42;99604.00;8278832;28;20260;-65
2021/12/26 11:16:11;;;;;;;;;;;;;;;4.94;96.23;99593.25;8273382;28;20521;-65
2021/12/26 11:20:22;;;;;;;26.98;14.75;;;;;;;5.50;93.10;99589.28;8269498;28;20317;-65
2021/12/26 11:24:23;;;;;;;22.95;12.60;;;;;;;5.98;89.81;99583.22;8270379;28;20476;-65
2021/12/26 11:28:28;;;;;;;24.23;13.10;;;;;;;5.37;91.16;99594.81;8290036;28;20068;-65
2021/12/26 11:32:29;;;;;;;24.00;13.30;;;;;;;5.02;93.35;99582.72;8305726;28;20041;-65
2021/12/26 11:36:32;;;;;;;26.70;14.18;;;;;;;4.87;94.58;99578.63;8303255;28;20385;-65
2021/12/26 11:40:34;;;;;;;30.38;15.32;;;;;;;4.90;95.57;99575.72;8312283;28;20064;-65
2021/12/26 11:45:06;;;;;;;28.27;13.95;;;;;;;4.90;94.86;99579.25;8312227;28;20100;-65
2021/12/26 11:49:46;;;;;;;30.35;15.40;;;;;;;4.92;95.45;99571.94;8311444;28;20042;-65
2021/12/26 11:54:28;;;;;;;29.80;15.18;;;;;;;5.05;94.99;99563.72;8307789;28;20075;-65
2021/12/26 11:59:01;;;;;;;26.08;13.85;;;;;;;5.36;93.97;99570.84;8270178;28;20042;-65
2021/12/26 12:03:05;;;;;;;32.05;16.83;;;;;;;5.35;92.73;99558.44;8291062;28;20530;-65
2021/12/26 12:07:09;;;;;;;21.38;12.35;;;;;;;5.38;93.62;99558.16;8252313;28;20401;-65
2021/12/26 12:11:11;;;;;;;25.45;14.30;;;;;;;5.37;93.72;99551.13;8260400;28;20038;-65
2021/12/26 12:15:12;;;;;;;25.52;14.10;;;;;;;5.32;93.79;99548.84;8245020;28;20042;-65
2021/12/26 12:19:12;;;;;;;36.17;16.50;;;;;;;5.38;94.31;99555.50;8264390;28;20042;-65
2021/12/26 12:23:17;;;;;;;35.22;17.08;;;;;;;5.34;93.25;99552.22;8278781;28;20454;-64
2021/12/26 12:27:20;;;;;;;38.05;19.75;;;;;;;5.40;93.53;99553.53;8288746;28;20138;-64
2021/12/26 12:31:20;;;;;;;27.02;14.45;;;;;;;5.34;94.00;99546.03;8286585;28;20184;-64
2021/12/26 12:35:21;;;;;;;26.40;14.52;;;;;;;5.38;94.33;99547.44;8321015;28;20037;-64
2021/12/26 12:39:23;;;;;;;23.15;13.93;;;;;;;5.35;94.94;99547.72;8323773;28;20279;-64
2021/12/26 12:43:26;;;;;;;24.25;13.95;;;;;;;5.28;94.69;99554.59;8306581;28;20049;-64
2021/12/26 12:47:27;;;;;;;26.55;14.98;;;;;;;5.28;94.52;99547.38;8311655;28;20072;-64
2021/12/26 12:59:56;;;;;;;22.67;12.75;;;;;;;5.29;94.17;99540.19;8424513;27;20473;-64
2021/12/26 13:03:59;;;;;;;23.90;12.77;;;;;;;5.25;94.05;99542.28;8387458;28;20037;-64
2021/12/26 13:08:06;;;;;;;23.95;13.52;;;;;;;5.22;94.55;99541.72;8385609;28;20551;-64
2021/12/26 13:12:12;;;;;;;22.80;12.88;;;;;;;5.24;94.59;99542.41;8371133;28;20118;-64
2021/12/26 13:16:12;;;;;;;23.35;13.25;;;;;;;5.25;95.08;99536.94;8419406;28;20133;-64
2021/12/26 13:20:18;;;;;;;23.00;13.23;;;;;;;5.23;94.77;99533.56;8405633;28;20100;-64
2021/12/26 13:24:33;;;;;;;19.08;11.10;;;;;;;5.22;94.80;99525.66;8414358;28;20123;-64
2021/12/26 13:28:35;;;;;;;23.05;12.23;;;;;;;5.11;96.05;99512.31;8416538;28;20578;-64
2021/12/26 13:32:38;;;;;;;20.52;12.32;;;;;;;5.24;95.83;99519.16;8391244;28;20032;-64
2021/12/26 13:36:39;;;;;;;19.80;11.02;;;;;;;5.24;95.71;99507.59;8389278;28;20337;-64
2021/12/26 13:40:43;;;;;;;19.50;10.77;;;;;;;5.31;95.17;99508.78;8382400;28;20083;-64
2021/12/26 13:44:45;;;;;;;21.02;11.73;;;;;;;5.41;95.14;99515.03;8358997;28;20041;-64
2021/12/26 13:48:51;;;;;;;20.92;11.73;;;;;;;5.49;95.80;99507.19;8383300;28;20043;-64
2021/12/26 13:53:10;;;;;;;20.42;11.98;;;;;;;5.49;95.88;99505.34;8401224;28;20549;-64
2021/12/26 13:57:12;;;;;;;19.83;12.23;;;;;;;5.46;95.31;99499.41;8414645;28;20044;-64
2021/12/26 14:01:13;;;;;;;21.17;11.70;;;;;;;5.52;96.14;99501.56;8416189;28;20071;-64
2021/12/26 14:05:18;;;;;;;19.52;11.57;;;;;;;5.39;95.95;99490.19;8417123;28;20074;-64
2021/12/26 14:09:19;;;;;;;;;;;;;;;5.40;96.67;99495.41;8403469;28;20040;-64
2021/12/26 14:13:21;;;;;;;19.50;10.07;;;;;;;5.34;96.76;99481.72;8384527;28;19924;-64
2021/12/26 14:17:22;;;;;;;22.75;12.27;;;;;;;5.33;97.34;99485.34;8386929;28;20043;-64
2021/12/26 14:21:25;;;;;;;18.35;11.38;;;;;;;5.29;97.34;99492.84;8387591;28;20036;-64
2021/12/26 14:25:27;;;;;;;21.15;11.27;;;;;;;5.28;97.58;99492.97;8385495;28;20064;-64
2021/12/26 14:29:29;;;;;;;19.08;11.23;;;;;;;5.23;97.68;99511.25;8377009;28;20060;-64
2021/12/26 14:33:45;;;;;;;20.00;11.07;;;;;;;5.26;98.50;99500.28;8380844;28;20041;-64
2021/12/26 14:37:45;;;;;;;21.85;12.23;;;;;;;5.25;98.37;99495.91;8370467;28;20143;-64
2021/12/26 14:41:47;;;;;;;21.45;12.07;;;;;;;5.21;97.88;99491.78;8387695;28;20048;-64
2021/12/26 14:45:53;;;;;;;23.00;12.55;;;;;;;5.18;98.05;99502.75;8370649;28;20326;-64
2021/12/26 14:49:56;;;;;;;20.95;12.18;;;;;;;5.16;97.81;99499.38;8378064;28;20040;-64
2021/12/26 14:54:02;;;;;;;21.97;11.10;;;;;;;5.14;98.14;99501.31;8358771;28;20045;-64
2021/12/26 14:58:17;;;;;;;22.70;12.70;;;;;;;5.09;98.21;99501.72;8369415;28;20294;-64
2021/12/26 15:02:20;;;;;;;22.02;11.85;;;;;;;5.08;97.79;99496.50;8370801;28;20337;-64
2021/12/26 15:06:21;;;;;;;22.77;13.18;;;;;;;5.07;98.37;99492.13;8375971;28;20033;-64
2021/12/26 15:10:31;;;;;;;22.67;12.23;;;;;;;5.01;98.41;99490.84;8380716;28;20044;-64
2021/12/26 15:14:32;;;;;;;21.55;12.52;;;;;;;4.99;98.57;99494.59;8385939;28;20036;-64
2021/12/26 15:18:34;;;;;;;23.58;12.88;;;;;;;4.98;98.61;99490.22;8384721;28;20128;-64
2021/12/26 15:22:40;;;;;;;21.33;12.52;;;;;;;4.97;98.50;99483.19;8384925;28;20044;-64
2021/12/26 15:26:40;;;;;;;23.15;12.77;;;;;;;4.96;98.78;99482.31;8390649;28;20028;-64
2021/12/26 15:30:44;;;;;;;22.90;12.07;;;;;;;4.94;98.95;99491.47;8388457;28;20050;-64
2021/12/26 15:34:46;;;;;;;20.77;12.27;;;;;;;4.95;99.69;99482.47;8388802;28;20295;-65
2021/12/26 15:38:53;;;;;;;24.02;13.13;;;;;;;4.91;99.30;99478.34;8375040;28;20040;-65
2021/12/26 15:42:55;;;;;;;21.23;11.60;;;;;;;4.91;99.23;99478.34;8364745;28;20383;-65
2021/12/26 15:46:55;;;;;;;23.48;13.13;;;;;;;4.88;99.62;99478.63;8363685;28;20058;-65
2021/12/26 15:50:56;;;;;;;22.00;12.35;;;;;;;4.83;99.67;99480.81;8370789;28;20036;-65
2021/12/26 15:54:57;;;;;;;25.98;12.85;;;;;;;4.83;99.66;99480.81;8374754;28;20343;-65
2021/12/26 15:58:57;;;;;;;22.08;12.82;;;;;;;4.82;100.00;99471.09;8373192;28;20375;-65
2021/12/26 16:02:58;;;;;;;23.48;12.30;;;;;;;4.77;100.00;99459.91;8373998;28;20523;-65
2021/12/26 16:06:59;;;;;;;22.65;12.65;;;;;;;4.76;100.00;99482.31;8373959;28;20523;-65
2021/12/26 16:11:00;;;;;;;24.67;13.27;;;;;;;4.75;100.00;99484.16;8374808;28;20055;-65
2021/12/26 16:15:01;;;;;;;24.10;13.00;;;;;;;4.69;100.00;99484.66;8368413;28;20268;-65
2021/12/26 16:19:02;;;;;;;24.35;13.00;;;;;;;4.64;100.00;99476.19;8355788;28;20043;-65
2021/12/26 16:23:03;;;;;;;24.77;13.27;;;;;;;4.63;100.00;99470.97;8373593;28;20573;-65
2021/12/26 16:27:03;;;;;;;21.52;12.55;;;;;;;4.63;100.00;99469.13;8368533;28;20401;-65
2021/12/26 16:31:04;;;;;;;25.35;13.73;;;;;;;4.63;100.00;99479.00;8367330;28;20032;-65
2021/12/26 16:35:05;;;;;;;26.50;14.18;;;;;;;4.60;100.00;99473.91;8363455;28;20128;-65
2021/12/26 16:39:06;;;;;;;24.08;12.82;;;;;;;4.53;100.00;99488.75;8367025;28;20339;-65
2021/12/26 16:43:07;;;;;;;27.42;14.68;;;;;;;4.59;100.00;99488.22;8367594;28;20249;-65
2021/12/26 16:47:07;;;;;;;27.67;14.68;;;;;;;4.60;100.00;99479.25;8367381;28;20032;-65
2021/12/26 16:51:09;;;;;;;26.90;14.70;;;;;;;4.58;100.00;99486.53;8357375;28;20040;-64
2021/12/26 16:55:11;;;;;;;26.90;14.52;;;;;;;4.59;100.00;99477.53;8347584;28;20045;-64
2021/12/26 16:59:12;;;;;;;27.90;14.63;;;;;;;4.52;100.00;99471.00;8370170;28;20386;-65
2021/12/26 17:03:13;;;;;;;30.20;14.68;;;;;;;4.59;100.00;99477.53;8372417;28;20414;-64
2021/12/26 17:07:13;;;;;;;26.80;14.77;;;;;;;4.57;100.00;99474.16;8372369;28;20495;-64
2021/12/26 17:11:14;;;;;;;29.15;14.73;;;;;;;4.57;100.00;99471.47;8369597;28;20056;-65
2021/12/26 17:15:15;;;;;;;27.17;14.93;;;;;;;4.57;100.00;99468.81;8362570;28;20033;-64
2021/12/26 17:19:16;;;;;;;30.27;15.32;;;;;;;4.56;100.00;99469.75;8356061;28;20403;-64
2021/12/26 17:23:17;;;;;;;28.38;14.35;;;;;;;4.56;100.00;99475.09;8365658;28;20049;-64
2021/12/26 17:27:21;;;;;;;29.27;15.45;;;;;;;4.57;100.00;99472.31;8356699;28;20117;-65
2021/12/26 17:31:21;;;;;;;29.05;15.57;;;;;;;4.56;100.00;99472.44;8360932;28;20040;-64
2021/12/26 17:35:22;;;;;;;29.85;16.50;;;;;;;4.56;100.00;99461.72;8359202;28;20127;-64
2021/12/26 17:39:23;;;;;;;27.20;15.05;;;;;;;4.56;100.00;99467.09;8357227;28;20594;-64
2021/12/26 17:43:24;;;;;;;29.23;15.48;;;;;;;4.51;100.00;99458.63;8356244;28;20527;-64
2021/12/26 17:47:25;;;;;;;29.95;14.60;;;;;;;4.52;100.00;99462.97;8359516;28;20071;-64
2021/12/26 17:51:25;;;;;;;26.65;14.65;;;;;;;4.48;100.00;99466.91;8371507;28;20039;-64
2021/12/26 17:55:26;;;;;;;27.17;15.45;;;;;;;4.48;100.00;99458.88;8373312;28;20036;-64
2021/12/26 17:59:28;;;;;;;31.17;16.35;;;;;;;4.49;100.00;99460.56;8371081;28;20385;-65
2021/12/26 18:03:32;;;;;;;32.88;16.00;;;;;;;4.49;100.00;99456.06;8368157;28;20099;-64
2021/12/26 18:07:33;;;;;;;29.42;15.73;;;;;;;4.49;100.00;99452.53;8376405;28;20063;-64
2021/12/26 18:11:34;;;;;;;44.90;22.10;;;;;;;4.45;100.00;99453.78;8368590;28;20036;-64
2021/12/26 18:15:35;;;;;;;29.63;15.75;;;;;;;4.48;100.00;99458.88;8361844;28;20033;-64
2021/12/26 18:19:35;;;;;;;29.77;15.02;;;;;;;4.53;100.00;99456.63;8378494;28;20043;-64
2021/12/26 18:23:36;;;;;;;30.38;15.23;;;;;;;4.54;100.00;99458.34;8376045;28;20407;-64
2021/12/26 18:27:37;;;;;;;33.38;17.85;;;;;;;4.53;100.00;99451.28;8376577;28;20530;-64
2021/12/26 18:31:38;;;;;;;28.92;16.05;;;;;;;4.52;100.00;99455.81;8375174;28;20348;-64
2021/12/26 18:35:39;;;;;;;29.75;15.77;;;;;;;4.56;100.00;99451.03;8373877;28;20040;-64
2021/12/26 18:39:39;;;;;;;29.20;15.32;;;;;;;4.55;100.00;99444.00;8377140;28;20111;-64
2021/12/26 18:43:41;;;;;;;25.77;15.35;;;;;;;4.58;100.00;99441.06;8376095;28;20299;-64
2021/12/26 18:47:42;;;;;;;28.30;15.43;;;;;;;4.54;100.00;99447.66;8373047;28;20547;-64
2021/12/26 18:51:42;;;;;;;28.40;15.23;;;;;;;4.54;100.00;99442.28;8353598;28;20404;-64
2021/12/26 18:55:43;;;;;;;29.70;15.93;;;;;;;4.56;100.00;99434.97;8368875;28;20376;-64